< < Back
Terminal Aerodrome Forecast


Current Version              Previous Versions:   1  2  3  4  5  6  7  8  9  

Terminal Aerodrome Forecast

324
FTUS44 KOHX 301120
TAFBNA
TAF
KBNA 301120Z 3012/3112 04007KT P6SM SCT045
     FM310000 02003KT P6SM SKC=

Latest METAR

336
SAUS70 KWBC 301700 RRI
MTRBNA
METAR KBNA 301653Z 00000KT 10SM CLR 32/20 A3009 RMK A02 SLP NO


USA.gov is the U.S. government's official web portal to all federal, state and local government web resources and services.